createdAt,value
2019-01-12T00:00:45.619Z,7.00
2019-01-12T00:03:14.400Z,7.00
2019-01-12T00:05:43.163Z,7.00
2019-01-12T00:08:12.146Z,7.10
2019-01-12T00:10:40.910Z,7.10
2019-01-12T00:13:09.756Z,7.00
2019-01-12T00:15:38.677Z,7.00
2019-01-12T00:18:25.792Z,7.00
2019-01-12T00:20:52.204Z,7.00
2019-01-12T00:23:21.087Z,6.90
2019-01-12T00:25:49.999Z,7.00
2019-01-12T00:28:18.930Z,7.00
2019-01-12T00:30:47.712Z,7.00
2019-01-12T00:33:16.513Z,7.00
2019-01-12T00:35:45.313Z,7.00
2019-01-12T00:38:14.277Z,7.00
2019-01-12T00:40:43.145Z,7.00
2019-01-12T00:43:12.094Z,7.00
2019-01-12T00:45:40.874Z,7.00
2019-01-12T00:48:09.844Z,7.00
2019-01-12T00:50:38.701Z,7.00
2019-01-12T00:53:07.475Z,7.00
2019-01-12T00:55:36.330Z,7.00
2019-01-12T00:58:05.352Z,7.00
2019-01-12T01:00:34.317Z,7.00
2019-01-12T01:03:03.251Z,7.00
2019-01-12T01:05:32.033Z,7.00
2019-01-12T01:08:01.049Z,7.10
2019-01-12T01:10:29.926Z,7.10
2019-01-12T01:12:58.702Z,7.10
2019-01-12T01:15:27.573Z,7.10
2019-01-12T01:17:56.545Z,7.10
2019-01-12T01:20:25.320Z,7.10
2019-01-12T01:22:54.175Z,7.20
2019-01-12T01:25:22.969Z,7.10
2019-01-12T01:27:51.939Z,7.20
2019-01-12T01:30:21.490Z,7.20
2019-01-12T01:32:50.263Z,7.20
2019-01-12T01:35:19.077Z,7.20
2019-01-12T01:37:48.084Z,7.20
2019-01-12T01:40:18.229Z,7.20
2019-01-12T01:42:47.084Z,7.20
2019-01-12T01:45:17.218Z,7.20
2019-01-12T01:47:46.123Z,7.20
2019-01-12T01:50:15.814Z,7.20
2019-01-12T01:52:44.793Z,7.20
2019-01-12T01:55:14.030Z,7.20
2019-01-12T01:57:43.140Z,7.20
2019-01-12T02:00:14.846Z,7.20
2019-01-12T02:02:43.764Z,7.20
2019-01-12T02:05:13.020Z,7.20
2019-01-12T02:07:43.594Z,7.20
2019-01-12T02:10:15.814Z,7.20
2019-01-12T02:12:44.615Z,7.20
2019-01-12T02:15:14.017Z,7.20
2019-01-12T02:17:42.984Z,7.10
2019-01-12T02:20:12.057Z,7.10
2019-01-12T02:22:40.890Z,7.10
2019-01-12T02:25:10.092Z,7.10
2019-01-12T02:27:39.229Z,7.10
2019-01-12T02:30:13.486Z,7.10
2019-01-12T02:32:42.259Z,7.10
2019-01-12T02:35:11.061Z,7.10
2019-01-12T02:37:40.068Z,7.10
2019-01-12T02:40:10.819Z,7.10
2019-01-12T02:42:39.641Z,7.10
2019-01-12T02:45:09.835Z,7.20
2019-01-12T02:47:38.833Z,7.20
2019-01-12T02:50:08.915Z,7.20
2019-01-12T02:52:37.840Z,7.20
2019-01-12T02:55:08.870Z,7.20
2019-01-12T02:57:38.475Z,7.20
2019-01-12T03:00:10.581Z,7.20
2019-01-12T03:02:39.421Z,7.20
2019-01-12T03:05:08.505Z,7.20
2019-01-12T03:07:37.443Z,7.30
2019-01-12T03:10:07.738Z,7.20
2019-01-12T03:12:36.583Z,7.30
2019-01-12T03:15:07.563Z,7.30
2019-01-12T03:17:36.470Z,7.20
2019-01-12T03:20:07.062Z,7.20
2019-01-12T03:22:35.939Z,7.20
2019-01-12T03:25:05.718Z,7.20
2019-01-12T03:27:34.504Z,7.20
2019-01-12T03:30:04.609Z,7.20
2019-01-12T03:32:33.357Z,7.30
2019-01-12T03:35:02.164Z,7.20
2019-01-12T03:37:32.046Z,7.30
2019-01-12T03:40:00.886Z,7.30
2019-01-12T03:42:30.079Z,7.30
2019-01-12T03:44:59.365Z,7.30
2019-01-12T03:47:28.236Z,7.20
2019-01-12T03:49:57.016Z,7.20
2019-01-12T03:52:26.258Z,7.20
2019-01-12T03:54:55.725Z,7.20
2019-01-12T03:57:24.603Z,7.20
2019-01-12T03:59:53.383Z,7.20
2019-01-12T04:02:22.294Z,7.20
2019-01-12T04:04:51.073Z,7.20
2019-01-12T04:07:19.959Z,7.20
2019-01-12T04:09:48.859Z,7.20
2019-01-12T04:12:17.653Z,7.20
2019-01-12T04:14:46.483Z,7.20
2019-01-12T04:17:15.303Z,7.20
2019-01-12T04:19:44.086Z,7.10
2019-01-12T04:22:12.882Z,7.10
2019-01-12T04:24:41.666Z,7.10
2019-01-12T04:27:10.662Z,7.20
2019-01-12T04:29:39.464Z,7.20
2019-01-12T04:32:08.254Z,7.20
2019-01-12T04:34:37.063Z,7.20
2019-01-12T04:37:06.047Z,7.20
2019-01-12T04:39:34.888Z,7.20
2019-01-12T04:42:03.749Z,7.20
2019-01-12T04:44:32.509Z,7.20
2019-01-12T04:47:01.371Z,7.10
2019-01-12T04:49:30.152Z,7.10
2019-01-12T04:51:58.920Z,7.20
2019-01-12T04:54:27.710Z,7.20
2019-01-12T04:56:56.532Z,7.20
2019-01-12T04:59:25.316Z,7.20
2019-01-12T05:01:54.142Z,7.20
2019-01-12T05:04:22.907Z,7.20
2019-01-12T05:06:51.894Z,7.20
2019-01-12T05:09:20.671Z,7.20
2019-01-12T05:11:49.473Z,7.20
2019-01-12T05:14:18.456Z,7.20
2019-01-12T05:16:47.434Z,7.10
2019-01-12T05:19:16.225Z,7.10
2019-01-12T05:21:45.015Z,7.10
2019-01-12T05:24:13.908Z,7.10
2019-01-12T05:26:42.788Z,7.10
2019-01-12T05:29:11.524Z,7.10
2019-01-12T05:31:40.399Z,7.10
2019-01-12T05:34:09.180Z,7.20
2019-01-12T05:36:38.152Z,7.20
2019-01-12T05:39:07.922Z,7.20
2019-01-12T05:41:36.701Z,7.20
2019-01-12T05:44:05.560Z,7.20
2019-01-12T05:46:34.526Z,7.20
2019-01-12T05:49:03.302Z,7.20
2019-01-12T05:51:32.245Z,7.20
2019-01-12T05:54:01.057Z,7.20
2019-01-12T05:56:31.557Z,7.20
2019-01-12T05:59:00.424Z,7.20
2019-01-12T06:01:29.225Z,7.20
2019-01-12T06:03:58.077Z,7.20
2019-01-12T06:06:26.898Z,7.20
2019-01-12T06:08:55.688Z,7.20
2019-01-12T06:11:24.458Z,7.20
2019-01-12T06:13:53.240Z,7.20
2019-01-12T06:16:22.241Z,7.20
2019-01-12T06:18:55.872Z,7.20
2019-01-12T06:21:24.657Z,7.20
2019-01-12T06:23:53.416Z,7.20
2019-01-12T06:26:24.252Z,7.20
2019-01-12T06:28:53.036Z,7.20
2019-01-12T06:31:21.906Z,7.20
2019-01-12T06:33:51.485Z,7.20
2019-01-12T06:36:20.309Z,7.20
2019-01-12T06:38:49.090Z,7.20
2019-01-12T06:41:17.965Z,7.20
2019-01-12T06:43:46.701Z,7.20
2019-01-12T06:46:15.531Z,7.20
2019-01-12T06:48:44.295Z,7.30
2019-01-12T06:51:13.069Z,7.30
2019-01-12T06:53:41.891Z,7.30
2019-01-12T06:56:11.057Z,7.30
2019-01-12T06:58:40.128Z,7.30
2019-01-12T07:01:08.945Z,7.40
2019-01-12T07:03:38.000Z,7.40
2019-01-12T07:06:06.804Z,7.40
2019-01-12T07:08:35.677Z,7.40
2019-01-12T07:11:04.617Z,7.40
2019-01-12T07:13:33.395Z,7.50
2019-01-12T07:16:02.259Z,7.50
2019-01-12T07:18:31.253Z,7.50
2019-01-12T07:21:00.128Z,7.50
2019-01-12T07:23:28.945Z,7.50
2019-01-12T07:25:57.727Z,7.50
2019-01-12T07:28:26.640Z,7.60
2019-01-12T07:30:55.547Z,7.60
2019-01-12T07:33:24.354Z,7.60
2019-01-12T07:35:53.337Z,7.60
2019-01-12T07:38:22.088Z,7.60
2019-01-12T07:40:51.054Z,7.60
2019-01-12T07:43:19.839Z,7.60
2019-01-12T07:45:48.842Z,7.60
2019-01-12T07:48:17.707Z,7.60
2019-01-12T07:50:46.622Z,7.70
2019-01-12T07:53:15.498Z,7.60
2019-01-12T07:55:44.452Z,7.70
2019-01-12T07:58:13.305Z,7.70
2019-01-12T08:00:42.200Z,7.70
2019-01-12T08:03:10.970Z,7.70
2019-01-12T08:05:39.974Z,7.70
2019-01-12T08:08:09.032Z,7.60
2019-01-12T08:10:38.030Z,7.60
2019-01-12T08:13:06.809Z,7.60
2019-01-12T08:15:35.599Z,7.60
2019-01-12T08:18:05.051Z,7.60
2019-01-12T08:20:33.938Z,7.60
2019-01-12T08:23:02.726Z,7.60
2019-01-12T08:25:31.536Z,7.60
2019-01-12T08:28:00.370Z,7.60
2019-01-12T08:30:29.300Z,7.60
2019-01-12T08:32:58.134Z,7.60
2019-01-12T08:35:27.078Z,7.60
2019-01-12T08:37:55.926Z,7.60
2019-01-12T08:40:24.780Z,7.60
2019-01-12T08:42:53.586Z,7.60
2019-01-12T08:45:22.376Z,7.60
2019-01-12T08:47:51.446Z,7.70
2019-01-12T08:50:20.758Z,7.60
2019-01-12T08:52:49.570Z,7.60
2019-01-12T08:55:18.360Z,7.60
2019-01-12T08:57:47.698Z,7.60
2019-01-12T09:00:21.297Z,7.60
2019-01-12T09:02:50.272Z,7.60
2019-01-12T09:05:19.055Z,7.60
2019-01-12T09:07:49.924Z,7.60
2019-01-12T09:10:24.874Z,7.60
2019-01-12T09:12:53.794Z,7.50
2019-01-12T09:15:24.242Z,7.50
2019-01-12T09:17:56.586Z,7.50
2019-01-12T09:20:28.376Z,7.50
2019-01-12T09:22:57.770Z,7.40
2019-01-12T09:25:27.602Z,7.40
2019-01-12T09:27:56.580Z,7.40
2019-01-12T09:30:25.573Z,7.40
2019-01-12T09:32:55.672Z,7.40
2019-01-12T09:35:24.658Z,7.40
2019-01-12T09:37:53.667Z,7.40
2019-01-12T09:40:23.455Z,7.40
2019-01-12T09:42:52.728Z,7.40
2019-01-12T09:45:21.724Z,7.40
2019-01-12T09:47:51.098Z,7.40
2019-01-12T09:50:21.524Z,7.50
2019-01-12T09:52:50.996Z,7.50
2019-01-12T09:55:19.957Z,7.50
2019-01-12T09:57:48.905Z,7.50
2019-01-12T10:00:25.591Z,7.50
2019-01-12T10:02:54.526Z,7.50
2019-01-12T10:05:24.246Z,7.50
2019-01-12T10:07:53.247Z,7.60
2019-01-12T10:10:22.605Z,7.60
2019-01-12T10:12:51.875Z,7.60
2019-01-12T10:15:21.997Z,7.60
2019-01-12T10:17:50.878Z,7.60
2019-01-12T10:20:20.448Z,7.60
2019-01-12T10:22:49.405Z,7.60
2019-01-12T10:25:18.501Z,7.60
2019-01-12T10:27:47.478Z,7.60
2019-01-12T10:30:21.813Z,7.70
2019-01-12T10:32:50.746Z,7.70
2019-01-12T10:35:19.887Z,7.70
2019-01-12T10:37:48.849Z,7.70
2019-01-12T10:40:18.569Z,7.70
2019-01-12T10:42:47.584Z,7.70
2019-01-12T10:45:17.547Z,7.70
2019-01-12T10:47:46.898Z,7.70
2019-01-12T10:50:22.322Z,7.70
2019-01-12T10:52:51.204Z,7.70
2019-01-12T10:55:20.170Z,7.70
2019-01-12T10:57:49.217Z,7.70
2019-01-12T11:00:24.218Z,7.80
2019-01-12T11:02:54.295Z,7.80
2019-01-12T11:05:23.440Z,7.80
2019-01-12T11:07:52.471Z,7.80
2019-01-12T11:10:21.581Z,7.80
2019-01-12T11:12:51.611Z,7.80
2019-01-12T11:15:21.067Z,7.80
2019-01-12T11:17:50.685Z,7.80
2019-01-12T11:20:20.461Z,7.80
2019-01-12T11:22:54.195Z,7.80
2019-01-12T11:25:25.133Z,7.80
2019-01-12T11:27:57.340Z,7.70
2019-01-12T11:30:29.782Z,7.80
2019-01-12T11:32:58.622Z,7.80
2019-01-12T11:35:30.164Z,7.80
2019-01-12T11:37:59.152Z,7.80
2019-01-12T11:40:29.310Z,7.80
2019-01-12T11:43:01.185Z,7.80
2019-01-12T11:45:30.027Z,7.80
2019-01-12T11:47:59.007Z,7.80
2019-01-12T11:50:27.913Z,7.80
2019-01-12T11:52:56.778Z,7.80
2019-01-12T11:55:26.031Z,7.80
2019-01-12T11:57:54.911Z,7.80
2019-01-12T12:00:29.134Z,7.90
2019-01-12T12:02:58.301Z,7.90
2019-01-12T12:05:27.531Z,7.90
2019-01-12T12:07:58.341Z,7.90
2019-01-12T12:10:27.488Z,7.90
2019-01-12T12:12:56.536Z,7.90
2019-01-12T12:15:25.411Z,7.90
2019-01-12T12:17:54.373Z,7.90
2019-01-12T12:20:25.615Z,7.90
2019-01-12T12:22:54.775Z,7.90
2019-01-12T12:25:24.932Z,7.90
2019-01-12T12:27:54.134Z,7.90
2019-01-12T12:30:25.404Z,7.90
2019-01-12T12:32:54.692Z,7.90
2019-01-12T12:35:23.528Z,7.90
2019-01-12T12:37:54.029Z,7.90
2019-01-12T12:40:26.446Z,8.00
2019-01-12T12:42:56.188Z,8.00
2019-01-12T12:45:27.718Z,8.00
2019-01-12T12:47:56.668Z,8.10
2019-01-12T12:50:26.239Z,8.00
2019-01-12T12:52:55.088Z,8.10
2019-01-12T12:55:23.939Z,8.10
2019-01-12T12:57:52.800Z,8.10
2019-01-12T13:00:26.120Z,8.10
2019-01-12T13:02:55.030Z,8.10
2019-01-12T13:05:23.961Z,8.10
2019-01-12T13:07:52.787Z,8.10
2019-01-12T13:10:25.279Z,8.10
2019-01-12T13:12:54.385Z,8.20
2019-01-12T13:15:25.870Z,8.20
2019-01-12T13:17:54.873Z,8.20
2019-01-12T13:20:23.722Z,8.30
2019-01-12T13:22:52.606Z,8.20
2019-01-12T13:25:22.010Z,8.30
2019-01-12T13:27:51.006Z,8.30
2019-01-12T13:30:22.228Z,8.30
2019-01-12T13:32:51.156Z,8.30
2019-01-12T13:35:20.082Z,8.30
2019-01-12T13:37:49.417Z,8.30
2019-01-12T13:40:26.327Z,8.30
2019-01-12T13:42:55.219Z,8.30
2019-01-12T13:45:24.826Z,8.30
2019-01-12T13:47:53.978Z,8.30
2019-01-12T13:50:24.832Z,8.30
2019-01-12T13:52:53.913Z,8.30
2019-01-12T13:55:22.767Z,8.30
2019-01-12T13:57:51.989Z,8.30
2019-01-12T14:00:26.920Z,8.30
2019-01-12T14:02:55.881Z,8.30
2019-01-12T14:05:24.840Z,8.30
2019-01-12T14:07:56.587Z,8.30
2019-01-12T14:10:24.916Z,8.30
2019-01-12T14:12:56.685Z,8.30
2019-01-12T14:15:25.851Z,8.30
2019-01-12T14:17:54.667Z,8.30
2019-01-12T14:20:29.877Z,8.20
2019-01-12T14:23:03.029Z,8.30
2019-01-12T14:25:36.065Z,8.20
2019-01-12T14:28:06.437Z,8.20
2019-01-12T14:30:35.491Z,8.20
2019-01-12T14:33:06.464Z,8.20
2019-01-12T14:35:48.476Z,8.20
2019-01-12T14:38:17.309Z,8.20
2019-01-12T14:40:46.118Z,8.20
2019-01-12T14:43:14.931Z,8.20
2019-01-12T14:45:43.733Z,8.20
2019-01-12T14:48:14.066Z,8.10
2019-01-12T14:50:42.957Z,8.10
2019-01-12T14:53:11.768Z,8.10
2019-01-12T14:55:40.699Z,8.10
2019-01-12T14:58:10.039Z,8.10
2019-01-12T15:00:38.984Z,8.10
2019-01-12T15:03:07.765Z,8.00
2019-01-12T15:05:36.561Z,8.00
2019-01-12T15:08:06.081Z,8.10
2019-01-12T15:10:34.966Z,8.00
2019-01-12T15:13:04.025Z,8.00
2019-01-12T15:15:32.899Z,8.10
2019-01-12T15:18:02.487Z,8.10
2019-01-12T15:20:31.960Z,8.10
2019-01-12T15:23:00.820Z,8.10
2019-01-12T15:25:30.122Z,8.10
2019-01-12T15:27:59.689Z,8.00
2019-01-12T15:30:32.662Z,8.10
2019-01-12T15:33:03.909Z,8.10
2019-01-12T15:35:34.006Z,8.00
2019-01-12T15:38:02.975Z,8.00
2019-01-12T15:40:31.905Z,8.00
2019-01-12T15:43:00.728Z,8.00
2019-01-12T15:45:29.784Z,8.00
2019-01-12T15:47:58.594Z,8.00
2019-01-12T15:50:28.639Z,8.00
2019-01-12T15:52:57.767Z,8.00
2019-01-12T15:55:26.744Z,7.90
2019-01-12T15:57:55.721Z,8.00
2019-01-12T16:00:26.699Z,8.00
2019-01-12T16:02:55.632Z,7.90
2019-01-12T16:05:24.660Z,7.90
2019-01-12T16:07:53.684Z,7.90
2019-01-12T16:10:22.599Z,7.90
2019-01-12T16:12:51.439Z,7.90
2019-01-12T16:15:22.371Z,7.90
2019-01-12T16:17:51.637Z,8.00
2019-01-12T16:20:22.845Z,8.00
2019-01-12T16:22:51.895Z,7.90
2019-01-12T16:25:20.739Z,7.90
2019-01-12T16:27:49.676Z,7.90
2019-01-12T16:30:19.918Z,8.00
2019-01-12T16:32:49.270Z,7.90
2019-01-12T16:35:19.106Z,7.90
2019-01-12T16:37:48.159Z,8.00
2019-01-12T16:40:19.160Z,7.90
2019-01-12T16:42:48.030Z,7.90
2019-01-12T16:45:16.995Z,7.90
2019-01-12T16:47:46.913Z,7.90
2019-01-12T16:50:16.168Z,7.90
2019-01-12T16:52:45.098Z,7.90
2019-01-12T16:55:18.049Z,8.00
2019-01-12T16:57:46.964Z,8.00
2019-01-12T17:00:21.205Z,7.90
2019-01-12T17:02:50.629Z,8.00
2019-01-12T17:05:25.468Z,8.00
2019-01-12T17:07:53.279Z,7.90
2019-01-12T17:10:22.691Z,7.90
2019-01-12T17:12:51.592Z,8.00
2019-01-12T17:15:22.055Z,8.00
2019-01-12T17:17:51.036Z,8.00
2019-01-12T17:20:32.428Z,8.00
2019-01-12T17:23:05.332Z,7.90
2019-01-12T17:25:34.716Z,7.90
2019-01-12T17:28:03.830Z,8.00
2019-01-12T17:30:32.617Z,8.00
2019-01-12T17:33:01.399Z,8.00
2019-01-12T17:35:30.310Z,8.00
2019-01-12T17:37:59.369Z,7.90
2019-01-12T17:40:28.275Z,7.90
2019-01-12T17:42:57.049Z,7.90
2019-01-12T17:45:27.118Z,7.90
2019-01-12T17:47:56.184Z,7.80
2019-01-12T17:50:27.981Z,7.80
2019-01-12T17:52:57.706Z,7.80
2019-01-12T17:55:27.944Z,7.80
2019-01-12T17:57:57.201Z,7.70
2019-01-12T18:00:48.050Z,7.70
2019-01-12T18:03:17.006Z,7.70
2019-01-12T18:05:45.835Z,7.70
2019-01-12T18:08:15.121Z,7.70
2019-01-12T18:10:44.013Z,7.70
2019-01-12T18:13:12.901Z,7.70
2019-01-12T18:15:41.976Z,7.70
2019-01-12T18:18:11.453Z,7.70
2019-01-12T18:20:40.374Z,7.70
2019-01-12T18:23:09.293Z,7.70
2019-01-12T18:25:38.113Z,7.70
2019-01-12T18:28:07.217Z,7.70
2019-01-12T18:30:36.662Z,7.80
2019-01-12T18:33:05.994Z,7.70
2019-01-12T18:35:34.794Z,7.80
2019-01-12T18:38:03.867Z,7.80
2019-01-12T18:40:32.725Z,7.70
2019-01-12T18:43:01.670Z,7.80
2019-01-12T18:45:30.493Z,7.70
2019-01-12T18:48:00.932Z,7.80
2019-01-12T18:50:29.941Z,7.80
2019-01-12T18:52:58.809Z,7.80
2019-01-12T18:55:27.857Z,7.80
2019-01-12T18:57:58.675Z,7.80
2019-01-12T19:00:29.422Z,7.80
2019-01-12T19:02:58.213Z,7.80
2019-01-12T19:05:27.271Z,7.80
2019-01-12T19:07:56.173Z,7.80
2019-01-12T19:10:26.287Z,7.80
2019-01-12T19:12:55.233Z,7.80
2019-01-12T19:15:29.161Z,7.80
2019-01-12T19:17:58.230Z,7.80
2019-01-12T19:20:27.074Z,7.80
2019-01-12T19:22:56.037Z,7.80
2019-01-12T19:25:24.848Z,7.80
2019-01-12T19:27:53.873Z,7.80
2019-01-12T19:30:23.898Z,7.80
2019-01-12T19:32:52.856Z,7.80
2019-01-12T19:35:21.854Z,7.80
2019-01-12T19:37:50.806Z,7.80
2019-01-12T19:40:26.620Z,7.80
2019-01-12T19:42:55.470Z,7.80
2019-01-12T19:45:24.642Z,7.80
2019-01-12T19:47:53.778Z,7.80
2019-01-12T19:50:29.125Z,7.90
2019-01-12T19:52:59.458Z,7.90
2019-01-12T19:55:30.654Z,7.90
2019-01-12T19:57:59.619Z,7.90
2019-01-12T20:00:30.475Z,7.90
2019-01-12T20:02:59.384Z,7.90
2019-01-12T20:05:28.570Z,7.90
2019-01-12T20:07:57.620Z,7.90
2019-01-12T20:10:26.825Z,7.90
2019-01-12T20:12:56.649Z,7.90
2019-01-12T20:15:26.047Z,7.90
2019-01-12T20:17:55.083Z,7.90
2019-01-12T20:20:24.031Z,7.90
2019-01-12T20:22:52.918Z,7.90
2019-01-12T20:25:29.649Z,7.90
2019-01-12T20:28:00.484Z,7.90
2019-01-12T20:30:59.383Z,7.90
2019-01-12T20:33:42.467Z,7.90
2019-01-12T20:36:44.178Z,7.90
2019-01-12T20:39:40.520Z,7.90
2019-01-12T20:42:52.506Z,7.90
2019-01-12T20:46:07.070Z,7.90
2019-01-12T20:49:09.432Z,7.90
2019-01-12T20:52:18.922Z,7.90
2019-01-12T20:55:17.883Z,7.90
2019-01-12T20:58:26.945Z,7.90
2019-01-12T21:01:07.796Z,7.90
2019-01-12T21:03:55.734Z,7.90
2019-01-12T21:06:46.878Z,7.90
2019-01-12T21:09:25.781Z,7.90
2019-01-12T21:12:25.185Z,7.90
2019-01-12T21:15:11.426Z,7.90
2019-01-12T21:17:45.503Z,7.90
2019-01-12T21:20:19.756Z,7.90
2019-01-12T21:22:50.787Z,7.90
2019-01-12T21:25:23.703Z,7.90
2019-01-12T21:27:52.703Z,7.90
2019-01-12T21:30:21.554Z,7.90
2019-01-12T21:32:50.328Z,7.90
2019-01-12T21:35:19.138Z,7.90
2019-01-12T21:37:48.103Z,7.90
2019-01-12T21:40:16.904Z,7.90
2019-01-12T21:42:45.712Z,7.90
2019-01-12T21:45:14.883Z,7.90
2019-01-12T21:47:43.783Z,7.90
2019-01-12T21:50:14.045Z,8.00
2019-01-12T21:52:43.009Z,8.00
2019-01-12T21:55:12.276Z,8.00
2019-01-12T21:57:41.215Z,8.00
2019-01-12T22:00:13.348Z,8.00
2019-01-12T22:02:42.129Z,8.10
2019-01-12T22:05:11.336Z,8.10
2019-01-12T22:07:40.598Z,8.10
2019-01-12T22:10:18.774Z,8.10
2019-01-12T22:12:42.180Z,8.10
2019-01-12T22:15:12.002Z,8.10
2019-01-12T22:17:40.826Z,8.10
2019-01-12T22:20:13.504Z,8.10
2019-01-12T22:22:42.580Z,8.10
2019-01-12T22:25:11.620Z,8.10
2019-01-12T22:27:40.546Z,8.10
2019-01-12T22:30:13.327Z,8.10
2019-01-12T22:32:42.309Z,8.10
2019-01-12T22:35:11.539Z,8.10
2019-01-12T22:37:40.630Z,8.10
2019-01-12T22:40:13.624Z,8.10
2019-01-12T22:42:42.452Z,8.10
2019-01-12T22:45:11.612Z,8.10
2019-01-12T22:47:40.902Z,8.10
2019-01-12T22:50:11.964Z,8.10
2019-01-12T22:52:40.974Z,8.20
2019-01-12T22:55:10.963Z,8.20
2019-01-12T22:57:40.005Z,8.10
2019-01-12T23:00:48.740Z,8.10
2019-01-12T23:03:18.492Z,8.20
2019-01-12T23:05:47.292Z,8.20
2019-01-12T23:08:16.360Z,8.10
2019-01-12T23:10:45.185Z,8.10
2019-01-12T23:13:14.028Z,8.20
2019-01-12T23:15:42.804Z,8.20
2019-01-12T23:18:12.044Z,8.20
2019-01-12T23:20:40.928Z,8.20
2019-01-12T23:23:09.884Z,8.20
2019-01-12T23:25:38.687Z,8.20
2019-01-12T23:28:07.543Z,8.20
2019-01-12T23:30:36.355Z,8.20
2019-01-12T23:33:05.546Z,8.20
2019-01-12T23:35:34.400Z,8.20
2019-01-12T23:38:03.771Z,8.20
2019-01-12T23:40:32.677Z,8.20
2019-01-12T23:43:01.841Z,8.20
2019-01-12T23:45:30.764Z,8.20
2019-01-12T23:48:00.017Z,8.20
2019-01-12T23:50:28.813Z,8.30
2019-01-12T23:52:57.597Z,8.30
2019-01-12T23:55:26.393Z,8.20
2019-01-12T23:57:55.377Z,8.30
